createdAt,value
2023-04-02T00:00:45.297Z,99680.0703125
2023-04-02T00:01:47.799Z,99680.65625
2023-04-02T00:02:45.364Z,99683.33984375
2023-04-02T00:03:45.387Z,99679.68359375
2023-04-02T00:04:45.399Z,99681.90625
2023-04-02T00:05:45.661Z,99679.34375
2023-04-02T00:06:45.448Z,99683.59765625
2023-04-02T00:07:45.236Z,99684.078125
2023-04-02T00:08:45.263Z,99686.26953125
2023-04-02T00:09:45.257Z,99686.6171875
2023-04-02T00:10:45.371Z,99691.36328125
2023-04-02T00:11:45.393Z,99692.4140625
2023-04-02T00:12:47.730Z,99696.64453125
2023-04-02T00:13:45.689Z,99696.6640625
2023-04-02T00:14:45.436Z,99699.3984375
2023-04-02T00:15:45.683Z,99701.875
2023-04-02T00:16:45.467Z,99701.62890625
2023-04-02T00:17:45.265Z,99703.453125
2023-04-02T00:18:45.272Z,99704.25390625
2023-04-02T00:19:45.243Z,99704.6484375
2023-04-02T00:20:45.785Z,99704.4921875
2023-04-02T00:21:45.279Z,99704.7734375
2023-04-02T00:22:45.336Z,99709.33203125
2023-04-02T00:23:47.812Z,99706.3515625
2023-04-02T00:24:45.301Z,99705.453125
2023-04-02T00:25:45.861Z,99708.78515625
2023-04-02T00:26:45.236Z,99707.484375
2023-04-02T00:27:45.246Z,99710.51171875
2023-04-02T00:28:45.671Z,99709.3671875
2023-04-02T00:29:45.246Z,99713.29296875
2023-04-02T00:30:45.712Z,99712.3125
2023-04-02T00:31:45.291Z,99717.9921875
2023-04-02T00:32:45.271Z,99718.2578125
2023-04-02T00:33:45.237Z,99720.21484375
2023-04-02T00:34:47.701Z,99722.83984375
2023-04-02T00:35:45.691Z,99719.640625
2023-04-02T00:36:45.243Z,99722.47265625
2023-04-02T00:37:45.261Z,99723.60546875
2023-04-02T00:38:46.702Z,99724.1640625
2023-04-02T00:39:45.259Z,99722.984375
2023-04-02T00:40:45.660Z,99725.78125
2023-04-02T00:41:45.268Z,99725.55078125
2023-04-02T00:42:45.270Z,99725.26171875
2023-04-02T00:43:45.660Z,99726.30078125
2023-04-02T00:44:45.271Z,99725.84765625
2023-04-02T00:45:48.099Z,99727.59765625
2023-04-02T00:46:45.240Z,99729.46484375
2023-04-02T00:47:45.375Z,99734.8515625
2023-04-02T00:48:45.285Z,99730.5234375
2023-04-02T00:49:45.258Z,99734.73828125
2023-04-02T00:50:45.652Z,99737.88671875
2023-04-02T00:51:45.238Z,99735.921875
2023-04-02T00:52:45.242Z,99739.046875
2023-04-02T00:53:45.240Z,99737.953125
2023-04-02T00:54:45.383Z,99738.76171875
2023-04-02T00:55:54.126Z,99742.09765625
2023-04-02T00:56:47.714Z,99739.11328125
2023-04-02T00:57:45.685Z,99742.1328125
2023-04-02T00:58:45.654Z,99740.953125
2023-04-02T00:59:45.356Z,99739.53515625
2023-04-02T01:00:45.246Z,99739.31640625
2023-04-02T01:01:45.795Z,99741.7578125
2023-04-02T01:02:45.416Z,99737.890625
2023-04-02T01:03:45.352Z,99738.5859375
2023-04-02T01:04:45.244Z,99738.7734375
2023-04-02T01:05:45.291Z,99740.71484375
2023-04-02T01:06:45.690Z,99738.9140625
2023-04-02T01:07:47.646Z,99742.40625
2023-04-02T01:08:45.241Z,99745.81640625
2023-04-02T01:09:45.243Z,99748.33984375
2023-04-02T01:10:45.264Z,99745.5703125
2023-04-02T01:11:45.680Z,99747.8984375
2023-04-02T01:12:45.255Z,99749.19140625
2023-04-02T01:13:45.691Z,99750.078125
2023-04-02T01:14:45.256Z,99754.54296875
2023-04-02T01:15:45.268Z,99752.625
2023-04-02T01:16:45.695Z,99751.078125
2023-04-02T01:17:45.313Z,99751.63671875
2023-04-02T01:18:47.640Z,99756.5859375
2023-04-02T01:19:45.367Z,99753.88671875
2023-04-02T01:20:45.261Z,99753.98046875
2023-04-02T01:21:45.662Z,99753.29296875
2023-04-02T01:22:45.263Z,99754.34765625
2023-04-02T01:23:45.246Z,99753.8671875
2023-04-02T01:24:45.257Z,99754.46484375
2023-04-02T01:25:45.268Z,99758.16796875
2023-04-02T01:26:45.729Z,99758.42578125
2023-04-02T01:27:45.262Z,99761.3515625
2023-04-02T01:28:45.648Z,99762.4609375
2023-04-02T01:29:47.685Z,99761.41796875
2023-04-02T01:30:45.240Z,99762.55078125
2023-04-02T01:31:45.504Z,99764.6484375
2023-04-02T01:32:45.268Z,99768.2421875
2023-04-02T01:33:45.254Z,99763.26953125
2023-04-02T01:34:45.257Z,99767.51171875
2023-04-02T01:35:45.295Z,99767.18359375
2023-04-02T01:36:45.656Z,99767.9453125
2023-04-02T01:37:45.267Z,99773.71875
2023-04-02T01:38:45.283Z,99769.69921875
2023-04-02T01:39:45.244Z,99773.41015625
2023-04-02T01:40:47.685Z,99772.83984375
2023-04-02T01:41:45.681Z,99776.06640625
2023-04-02T01:42:45.239Z,99774.69140625
2023-04-02T01:43:45.286Z,99778.171875
2023-04-02T01:44:45.248Z,99777.546875
2023-04-02T01:45:45.258Z,99778.015625
2023-04-02T01:46:45.687Z,99780.640625
2023-04-02T01:47:45.303Z,99782.4921875
2023-04-02T01:48:45.245Z,99785.0703125
2023-04-02T01:49:45.251Z,99784.51953125
2023-04-02T01:50:45.256Z,99784.90625
2023-04-02T01:51:50.196Z,99785.51953125
2023-04-02T01:52:45.253Z,99789.828125
2023-04-02T01:53:45.224Z,99791.62890625
2023-04-02T01:54:45.242Z,99792.20703125
2023-04-02T01:55:45.237Z,99791.18359375
2023-04-02T01:56:45.669Z,99795.42578125
2023-04-02T01:57:45.259Z,99796.265625
2023-04-02T01:58:45.290Z,99797.296875
2023-04-02T01:59:45.258Z,99795.45703125
2023-04-02T02:00:45.274Z,99795.05078125
2023-04-02T02:01:45.707Z,99798.58203125
2023-04-02T02:02:47.633Z,99798.8203125
2023-04-02T02:03:45.411Z,99803.69921875
2023-04-02T02:04:45.250Z,99799.0234375
2023-04-02T02:05:45.376Z,99800.41015625
2023-04-02T02:06:46.147Z,99804.49609375
2023-04-02T02:07:45.259Z,99801.12109375
2023-04-02T02:08:45.260Z,99803.58203125
2023-04-02T02:09:45.269Z,99802.51953125
2023-04-02T02:10:45.275Z,99805.1875
2023-04-02T02:11:45.709Z,99806.7265625
2023-04-02T02:12:45.229Z,99807.87890625
2023-04-02T02:13:50.145Z,99812.08984375
2023-04-02T02:14:45.263Z,99808.8359375
2023-04-02T02:15:45.259Z,99805.56640625
2023-04-02T02:16:45.703Z,99807.16015625
2023-04-02T02:17:45.263Z,99809.62109375
2023-04-02T02:18:45.268Z,99808.1484375
2023-04-02T02:19:45.267Z,99811.40234375
2023-04-02T02:20:45.268Z,99811.6875
2023-04-02T02:21:45.673Z,99814.35546875
2023-04-02T02:22:45.365Z,99814.45703125
2023-04-02T02:23:45.401Z,99811.1171875
2023-04-02T02:24:47.605Z,99813.94140625
2023-04-02T02:25:45.259Z,99812.58984375
2023-04-02T02:26:45.807Z,99817.97265625
2023-04-02T02:27:45.266Z,99818.09375
2023-04-02T02:28:45.686Z,99817.671875
2023-04-02T02:29:45.244Z,99818.578125
2023-04-02T02:30:45.238Z,99819.671875
2023-04-02T02:31:45.692Z,99821.33984375
2023-04-02T02:32:45.267Z,99821.484375
2023-04-02T02:33:45.245Z,99825.1015625
2023-04-02T02:34:45.322Z,99825.71484375
2023-04-02T02:35:47.604Z,99824.73046875
2023-04-02T02:36:45.699Z,99827.6328125
2023-04-02T02:37:45.257Z,99833.74609375
2023-04-02T02:38:45.253Z,99833.109375
2023-04-02T02:39:45.243Z,99834.57421875
2023-04-02T02:40:45.383Z,99835.8984375
2023-04-02T02:41:45.691Z,99836.6875
2023-04-02T02:42:45.258Z,99840.109375
2023-04-02T02:43:45.293Z,99841.578125
2023-04-02T02:44:45.274Z,99843.4140625
2023-04-02T02:45:45.270Z,99843.30859375
2023-04-02T02:46:47.748Z,99845.42578125
2023-04-02T02:47:45.402Z,99846.484375
2023-04-02T02:48:45.396Z,99847.43359375
2023-04-02T02:49:45.240Z,99848.5859375
2023-04-02T02:50:45.247Z,99851.7265625
2023-04-02T02:51:45.704Z,99850.90234375
2023-04-02T02:52:45.253Z,99851.2890625
2023-04-02T02:53:45.385Z,99852.4375
2023-04-02T02:54:45.241Z,99852.65234375
2023-04-02T02:55:45.277Z,99852.3671875
2023-04-02T02:56:45.740Z,99855.61328125
2023-04-02T02:57:47.623Z,99856.25
2023-04-02T02:58:45.660Z,99849.9375
2023-04-02T02:59:45.236Z,99853.98046875
2023-04-02T03:00:45.257Z,99856.50390625
2023-04-02T03:01:45.812Z,99857.28515625
2023-04-02T03:02:45.380Z,99859.87890625
2023-04-02T03:03:45.508Z,99862.6015625
2023-04-02T03:04:45.392Z,99865.421875
2023-04-02T03:05:45.257Z,99862.08984375
2023-04-02T03:06:45.663Z,99863.77734375
2023-04-02T03:07:45.236Z,99867.32421875
2023-04-02T03:08:47.577Z,99866.671875
2023-04-02T03:09:45.253Z,99868.56640625
2023-04-02T03:10:45.305Z,99867.81640625
2023-04-02T03:11:45.659Z,99870.52734375
2023-04-02T03:12:45.249Z,99871.7421875
2023-04-02T03:13:45.250Z,99872.671875
2023-04-02T03:14:45.317Z,99873.95703125
2023-04-02T03:15:45.282Z,99875.55078125
2023-04-02T03:16:45.364Z,99877.13671875
2023-04-02T03:17:45.276Z,99881.07421875
2023-04-02T03:18:45.257Z,99879.20703125
2023-04-02T03:19:47.643Z,99879.06640625
2023-04-02T03:20:45.252Z,99883.16796875
2023-04-02T03:21:45.669Z,99883.8828125
2023-04-02T03:22:45.257Z,99885.05859375
2023-04-02T03:23:45.275Z,99887.60546875
2023-04-02T03:24:45.257Z,99887.50390625
2023-04-02T03:25:45.239Z,99892.953125
2023-04-02T03:26:45.694Z,99891.03125
2023-04-02T03:27:45.248Z,99895.16015625
2023-04-02T03:28:45.657Z,99898.21484375
2023-04-02T03:29:45.254Z,99897.72265625
2023-04-02T03:30:47.656Z,99901.2109375
2023-04-02T03:31:45.718Z,99902.6328125
2023-04-02T03:32:45.314Z,99904.78125
2023-04-02T03:33:45.249Z,99902.6328125
2023-04-02T03:34:45.268Z,99905.8515625
2023-04-02T03:35:45.278Z,99911.3125
2023-04-02T03:36:45.651Z,99910.58203125
2023-04-02T03:37:45.257Z,99909.62890625
2023-04-02T03:38:45.278Z,99919.20703125
2023-04-02T03:39:45.260Z,99915.75390625
2023-04-02T03:40:45.376Z,99915.47265625
2023-04-02T03:41:50.131Z,99920.38671875
2023-04-02T03:42:45.261Z,99915.36328125
2023-04-02T03:43:45.663Z,99918.171875
2023-04-02T03:44:45.315Z,99921.75390625
2023-04-02T03:45:45.261Z,99922.62109375
2023-04-02T03:46:45.355Z,99922.234375
2023-04-02T03:47:45.313Z,99926.59375
2023-04-02T03:48:45.257Z,99927.625
2023-04-02T03:49:45.270Z,99924.03125
2023-04-02T03:50:45.257Z,99928.88671875
2023-04-02T03:51:45.684Z,99931.12109375
2023-04-02T03:52:47.763Z,99929.86328125
2023-04-02T03:53:45.265Z,99930.71484375
2023-04-02T03:54:54.162Z,99934.11328125
2023-04-02T03:55:45.241Z,99934.63671875
2023-04-02T03:56:45.671Z,99935.93359375
2023-04-02T03:57:45.261Z,99936.2734375
2023-04-02T03:58:45.371Z,99938.796875
2023-04-02T03:59:45.271Z,99938.72265625
2023-04-02T04:00:45.254Z,99939.71875
2023-04-02T04:01:45.707Z,99943.45703125
2023-04-02T04:02:45.265Z,99943.56640625
2023-04-02T04:03:47.628Z,99946.5390625
2023-04-02T04:04:45.251Z,99946.85546875
2023-04-02T04:05:45.247Z,99945.64453125
2023-04-02T04:06:45.669Z,99950.92578125
2023-04-02T04:07:45.350Z,99955.0625
2023-04-02T04:08:45.245Z,99950.65625
2023-04-02T04:09:45.369Z,99955.95703125
2023-04-02T04:10:45.244Z,99953.7578125
2023-04-02T04:11:45.754Z,99959.43359375
2023-04-02T04:12:45.225Z,99959.2265625
2023-04-02T04:13:45.680Z,99963.3671875
2023-04-02T04:14:47.648Z,99962.203125
2023-04-02T04:15:45.276Z,99962.69921875
2023-04-02T04:16:45.733Z,99961.30078125
2023-04-02T04:17:45.289Z,99965.81640625
2023-04-02T04:18:45.261Z,99967.34375
2023-04-02T04:19:45.822Z,99965.23046875
2023-04-02T04:20:45.257Z,99971.4140625
2023-04-02T04:21:45.676Z,99971.85546875
2023-04-02T04:22:45.259Z,99969.53125
2023-04-02T04:23:45.348Z,99973.2421875
2023-04-02T04:24:45.244Z,99973.01171875
2023-04-02T04:25:47.606Z,99977.296875
2023-04-02T04:26:45.648Z,99978.3984375
2023-04-02T04:27:45.322Z,99979.76953125
2023-04-02T04:28:45.677Z,99979.9375
2023-04-02T04:29:45.245Z,99979.4375
2023-04-02T04:30:45.258Z,99983.078125
2023-04-02T04:31:45.773Z,99982.35546875
2023-04-02T04:32:45.299Z,99984.16015625
2023-04-02T04:33:45.258Z,99983.12109375
2023-04-02T04:34:45.232Z,99984.19140625
2023-04-02T04:35:45.260Z,99986.19921875
2023-04-02T04:36:50.079Z,99985.12109375
2023-04-02T04:37:45.264Z,99994.41015625
2023-04-02T04:38:45.277Z,99996.8671875
2023-04-02T04:39:45.246Z,99995.078125
2023-04-02T04:40:45.256Z,99996.01171875
2023-04-02T04:41:45.267Z,99998.25
2023-04-02T04:42:45.274Z,99999.73046875
2023-04-02T04:43:45.381Z,100004.8828125
2023-04-02T04:44:45.242Z,100007.671875
2023-04-02T04:45:45.286Z,100005.8125
2023-04-02T04:46:45.659Z,100008.01171875
2023-04-02T04:47:47.692Z,100010.1328125
2023-04-02T04:48:45.253Z,100007.7265625
2023-04-02T04:49:45.257Z,100007.82421875
2023-04-02T04:50:45.262Z,100009.57421875
2023-04-02T04:51:45.746Z,100012.82421875
2023-04-02T04:52:45.325Z,100013.41796875
2023-04-02T04:53:45.242Z,100014.4765625
2023-04-02T04:54:45.234Z,100012.8359375
2023-04-02T04:55:45.269Z,100019.2578125
2023-04-02T04:56:45.673Z,100022.42578125
2023-04-02T04:57:45.254Z,100022.75390625
2023-04-02T04:58:47.611Z,100027.109375
2023-04-02T04:59:45.285Z,100024.97265625
2023-04-02T05:00:45.247Z,100027.30859375
2023-04-02T05:01:45.715Z,100024.20703125
2023-04-02T05:02:45.259Z,100032.59765625
2023-04-02T05:03:45.267Z,100031.296875
2023-04-02T05:04:45.261Z,100033.0546875
2023-04-02T05:05:45.267Z,100033.96875
2023-04-02T05:06:45.678Z,100040.140625
2023-04-02T05:07:45.226Z,100041.97265625
2023-04-02T05:08:45.248Z,100044.375
2023-04-02T05:09:47.600Z,100042.859375
2023-04-02T05:10:45.268Z,100047.66015625
2023-04-02T05:11:45.660Z,100047.984375
2023-04-02T05:12:45.364Z,100050.3203125
2023-04-02T05:13:45.792Z,100050.16796875
2023-04-02T05:14:45.259Z,100052.21875
2023-04-02T05:15:45.381Z,100051.203125
2023-04-02T05:16:45.692Z,100053.69921875
2023-04-02T05:17:45.267Z,100053.9140625
2023-04-02T05:18:45.370Z,100053.14453125
2023-04-02T05:19:45.379Z,100056.31640625
2023-04-02T05:20:47.608Z,100057.015625
2023-04-02T05:21:45.671Z,100062.06640625
2023-04-02T05:22:45.252Z,100061.4765625
2023-04-02T05:23:45.231Z,100058.5859375
2023-04-02T05:24:45.232Z,100062.546875
2023-04-02T05:25:45.223Z,100065.62109375
2023-04-02T05:26:45.686Z,100065.171875
2023-04-02T05:27:45.242Z,100063.94921875
2023-04-02T05:28:45.706Z,100067.0859375
2023-04-02T05:29:45.384Z,100065.68359375
2023-04-02T05:30:45.256Z,100070.20703125
2023-04-02T05:31:50.366Z,100068.88671875
2023-04-02T05:32:45.278Z,100068.7890625
2023-04-02T05:33:45.238Z,100070.390625
2023-04-02T05:34:45.350Z,100076.88671875
2023-04-02T05:35:45.311Z,100076.671875
2023-04-02T05:36:45.661Z,100074.4609375
2023-04-02T05:37:45.400Z,100072.41796875
2023-04-02T05:38:45.265Z,100075.1484375
2023-04-02T05:39:45.265Z,100078.0625
2023-04-02T05:40:45.223Z,100078.38671875
2023-04-02T05:41:45.705Z,100080.828125
2023-04-02T05:42:47.674Z,100087.421875
2023-04-02T05:43:45.684Z,100085.45703125
2023-04-02T05:44:45.304Z,100089.15625
2023-04-02T05:45:45.262Z,100090.8984375
2023-04-02T05:46:45.764Z,100091.92578125
2023-04-02T05:47:45.294Z,100093.5546875
2023-04-02T05:48:45.276Z,100096.71484375
2023-04-02T05:49:45.251Z,100095.98046875
2023-04-02T05:50:45.290Z,100097.17578125
2023-04-02T05:51:45.707Z,100097.33984375
2023-04-02T05:52:45.241Z,100099.1875
2023-04-02T05:53:47.807Z,100102.9296875
2023-04-02T05:54:45.264Z,100101.37890625
2023-04-02T05:55:45.365Z,100105.33203125
2023-04-02T05:56:45.671Z,100106.7265625
2023-04-02T05:57:54.902Z,100109.5859375
2023-04-02T05:58:45.860Z,100112.09375
2023-04-02T05:59:45.332Z,100114.16796875
2023-04-02T06:00:45.262Z,100107.98828125
2023-04-02T06:01:45.765Z,100113.48828125
2023-04-02T06:02:45.303Z,100117.0078125
2023-04-02T06:03:45.369Z,100116.46875
2023-04-02T06:04:47.618Z,100117.8828125
2023-04-02T06:05:45.243Z,100117.7578125
2023-04-02T06:06:45.698Z,100120.58984375
2023-04-02T06:07:45.270Z,100120.953125
2023-04-02T06:08:45.258Z,100123.59765625
2023-04-02T06:09:45.252Z,100124.171875
2023-04-02T06:10:45.244Z,100128.37109375
2023-04-02T06:11:45.640Z,100130.46875
2023-04-02T06:12:45.330Z,100133.734375
2023-04-02T06:13:45.693Z,100135.72265625
2023-04-02T06:14:45.387Z,100134.6875
2023-04-02T06:15:48.003Z,100139.62109375
2023-04-02T06:16:45.696Z,100140.89453125
2023-04-02T06:17:45.444Z,100143.58984375
2023-04-02T06:18:45.229Z,100149.9453125
2023-04-02T06:19:45.278Z,100147.9453125
2023-04-02T06:20:45.245Z,100152.12890625
2023-04-02T06:21:45.688Z,100156.39453125
2023-04-02T06:22:45.402Z,100159.90625
2023-04-02T06:23:45.259Z,100161.38671875
2023-04-02T06:24:45.271Z,100163.05078125
2023-04-02T06:25:45.401Z,100166.98046875
2023-04-02T06:26:50.108Z,100172.09765625
2023-04-02T06:27:45.373Z,100179.5703125
2023-04-02T06:28:45.647Z,100180.453125
2023-04-02T06:29:45.257Z,100189.234375
2023-04-02T06:30:45.297Z,100186.15625
2023-04-02T06:31:45.883Z,100194.4375
2023-04-02T06:32:45.296Z,100200.02734375
2023-04-02T06:33:45.297Z,100205.8046875
2023-04-02T06:34:45.263Z,100206.203125
2023-04-02T06:35:45.284Z,100201.06640625
2023-04-02T06:36:45.659Z,100202.4765625
2023-04-02T06:37:47.652Z,100207.10546875
2023-04-02T06:38:45.254Z,100210.91796875
2023-04-02T06:39:45.250Z,100207.28125
2023-04-02T06:40:45.273Z,100213.67578125
2023-04-02T06:41:45.431Z,100212.98046875
2023-04-02T06:42:45.269Z,100218.015625
2023-04-02T06:43:45.402Z,100216.44921875
2023-04-02T06:44:45.272Z,100221.8203125
2023-04-02T06:45:45.357Z,100222.64453125
2023-04-02T06:46:45.687Z,100224.05078125
2023-04-02T06:47:45.431Z,100225.78125
2023-04-02T06:48:47.647Z,100231.58984375
2023-04-02T06:49:45.268Z,100228.87890625
2023-04-02T06:50:45.260Z,100233.171875
2023-04-02T06:51:45.674Z,100232.4609375
2023-04-02T06:52:45.260Z,100235.43359375
2023-04-02T06:53:45.256Z,100241.24609375
2023-04-02T06:54:45.310Z,100243.08984375
2023-04-02T06:55:45.245Z,100244.1796875
2023-04-02T06:56:45.698Z,100246.08203125
2023-04-02T06:57:45.254Z,100251.97265625
2023-04-02T06:58:45.684Z,100253.01953125
2023-04-02T06:59:47.648Z,100257.7890625
2023-04-02T07:00:45.248Z,100261.1796875
2023-04-02T07:01:45.709Z,100261.2265625
2023-04-02T07:02:45.258Z,100262.9921875
2023-04-02T07:03:45.357Z,100270.2890625
2023-04-02T07:04:45.347Z,100266.75390625
2023-04-02T07:05:45.324Z,100276.6640625
2023-04-02T07:06:45.689Z,100273.6796875
2023-04-02T07:07:45.255Z,100276.765625
2023-04-02T07:08:45.240Z,100278.73046875
2023-04-02T07:09:45.261Z,100282.328125
2023-04-02T07:10:47.614Z,100284.7109375
2023-04-02T07:11:45.674Z,100287.26171875
2023-04-02T07:12:45.248Z,100295.46875
2023-04-02T07:13:45.682Z,100294.80859375
2023-04-02T07:14:45.239Z,100296.16796875
2023-04-02T07:15:45.245Z,100302.3125
2023-04-02T07:16:45.670Z,100303.59765625
2023-04-02T07:17:45.300Z,100304.87109375
2023-04-02T07:18:45.254Z,100304.65234375
2023-04-02T07:19:45.236Z,100313.03125
2023-04-02T07:20:45.251Z,100320.1484375
2023-04-02T07:21:47.717Z,100310.80078125
2023-04-02T07:22:45.233Z,100323.58984375
2023-04-02T07:23:45.389Z,100323.796875
2023-04-02T07:24:45.252Z,100331.6875
2023-04-02T07:25:45.244Z,100331.60546875
2023-04-02T07:26:45.646Z,100332.68359375
2023-04-02T07:27:45.257Z,100333.59375
2023-04-02T07:28:45.650Z,100339.5546875
2023-04-02T07:29:45.251Z,100338.80078125
2023-04-02T07:30:45.242Z,100342.65625
2023-04-02T07:31:45.766Z,100345.4140625
2023-04-02T07:32:47.612Z,100349.75390625
2023-04-02T07:33:45.231Z,100350.60546875
2023-04-02T07:34:45.248Z,100355.953125
2023-04-02T07:35:45.277Z,100352.63671875
2023-04-02T07:36:45.685Z,100357.4375
2023-04-02T07:37:45.229Z,100362.40234375
2023-04-02T07:38:45.314Z,100365.734375
2023-04-02T07:39:45.252Z,100364.13671875
2023-04-02T07:40:45.242Z,100369.4609375
2023-04-02T07:41:45.374Z,100368.390625
2023-04-02T07:42:45.282Z,100377.265625
2023-04-02T07:43:50.098Z,100380.31640625
2023-04-02T07:44:45.266Z,100378.89453125
2023-04-02T07:45:45.242Z,100378.1171875
2023-04-02T07:46:45.448Z,100378.28125
2023-04-02T07:47:45.299Z,100387.23046875
2023-04-02T07:48:45.240Z,100382.61328125
2023-04-02T07:49:45.382Z,100389.8203125
2023-04-02T07:50:45.258Z,100393.27734375
2023-04-02T07:51:45.697Z,100398.109375
2023-04-02T07:52:45.263Z,100396.125
2023-04-02T07:53:45.248Z,100397.296875
2023-04-02T07:54:47.794Z,100407.2890625
2023-04-02T07:55:45.224Z,100403.05859375
2023-04-02T07:56:45.429Z,100403.20703125
2023-04-02T07:57:46.837Z,100407.92578125
2023-04-02T07:58:45.752Z,100407.84765625
2023-04-02T07:59:45.237Z,100416.08984375
2023-04-02T08:00:45.330Z,100414.5
2023-04-02T08:01:45.690Z,100416.85546875
2023-04-02T08:02:45.276Z,100420.59375
2023-04-02T08:03:45.335Z,100418.53515625
2023-04-02T08:04:45.253Z,100425.6640625
2023-04-02T08:05:47.636Z,100418.41796875
2023-04-02T08:06:45.687Z,100427.06640625
2023-04-02T08:07:45.250Z,100425.9765625
2023-04-02T08:08:45.258Z,100432.6328125
2023-04-02T08:09:45.339Z,100435.25
2023-04-02T08:10:45.248Z,100436.4921875
2023-04-02T08:11:45.675Z,100437.78515625
2023-04-02T08:12:45.258Z,100439.65234375
2023-04-02T08:13:45.320Z,100445.15625
2023-04-02T08:14:45.258Z,100444.5390625
2023-04-02T08:15:45.317Z,100444.09375
2023-04-02T08:16:47.750Z,100450.375
2023-04-02T08:17:45.271Z,100448.83203125
2023-04-02T08:18:45.393Z,100450.43359375
2023-04-02T08:19:54.649Z,100453.66015625
2023-04-02T08:20:45.258Z,100454.23828125
2023-04-02T08:21:45.705Z,100459.51953125
2023-04-02T08:22:45.378Z,100460.40234375
2023-04-02T08:23:45.281Z,100466.859375
2023-04-02T08:24:45.394Z,100469.72265625
2023-04-02T08:25:45.258Z,100471.53515625
2023-04-02T08:26:45.687Z,100473.58984375
2023-04-02T08:27:47.633Z,100477.20703125
2023-04-02T08:28:45.672Z,100480.5234375
2023-04-02T08:29:45.267Z,100479.87890625
2023-04-02T08:30:45.275Z,100479.15234375
2023-04-02T08:31:45.410Z,100483.07421875
2023-04-02T08:32:45.458Z,100483.53125
2023-04-02T08:33:45.266Z,100483.55859375
2023-04-02T08:34:45.237Z,100491.5078125
2023-04-02T08:35:45.384Z,100492.26171875
2023-04-02T08:36:45.673Z,100489.69140625
2023-04-02T08:37:45.360Z,100490.6953125
2023-04-02T08:38:47.620Z,100495.3515625
2023-04-02T08:39:45.325Z,100498.296875
2023-04-02T08:40:45.400Z,100499.08203125
2023-04-02T08:41:45.693Z,100500.84375
2023-04-02T08:42:45.264Z,100504.1015625
2023-04-02T08:43:45.380Z,100505.21484375
2023-04-02T08:44:45.381Z,100509.8359375
2023-04-02T08:45:45.275Z,100507.5546875
2023-04-02T08:46:45.376Z,100509.328125
2023-04-02T08:47:45.343Z,100512.91796875
2023-04-02T08:48:45.243Z,100517.2109375
2023-04-02T08:49:47.592Z,100519.34765625
2023-04-02T08:50:45.370Z,100517.7890625
2023-04-02T08:51:45.343Z,100519.62890625
2023-04-02T08:52:45.255Z,100525.7890625
2023-04-02T08:53:45.215Z,100530.0390625
2023-04-02T08:54:45.263Z,100537.28515625
2023-04-02T08:55:45.731Z,100535.30078125
2023-04-02T08:56:45.709Z,100535.4375
2023-04-02T08:57:45.223Z,100539.8984375
2023-04-02T08:58:45.672Z,100539.36328125
2023-04-02T08:59:45.250Z,100546.9609375
2023-04-02T09:00:47.576Z,100543.8046875
2023-04-02T09:01:45.715Z,100543.05859375
2023-04-02T09:02:45.322Z,100540.65625
2023-04-02T09:03:45.244Z,100543.89453125
2023-04-02T09:04:45.325Z,100546.77734375
2023-04-02T09:05:45.253Z,100546.453125
2023-04-02T09:06:45.727Z,100549.74609375
2023-04-02T09:07:45.262Z,100550.6640625
2023-04-02T09:08:45.245Z,100550.0078125
2023-04-02T09:09:45.257Z,100552.10546875
2023-04-02T09:10:45.530Z,100556.42578125
2023-04-02T09:11:50.142Z,100558.55859375
2023-04-02T09:12:45.262Z,100561.2421875
2023-04-02T09:13:45.740Z,100560.3203125
2023-04-02T09:14:45.263Z,100565.9296875
2023-04-02T09:15:45.302Z,100565.44921875
2023-04-02T09:16:45.656Z,100565.02734375
2023-04-02T09:17:53.712Z,100576.1953125
2023-04-02T09:18:45.305Z,100571.4296875
2023-04-02T09:19:45.247Z,100575.34765625
2023-04-02T09:20:45.259Z,100572.79296875
2023-04-02T09:21:45.659Z,100579.02734375
2023-04-02T09:22:47.647Z,100578.53515625
2023-04-02T09:23:45.253Z,100583.71875
2023-04-02T09:24:45.264Z,100583.24609375
2023-04-02T09:25:51.050Z,100577.3359375
2023-04-02T09:26:45.262Z,100580.0078125
2023-04-02T09:27:45.268Z,100578.9765625
2023-04-02T09:28:45.268Z,100588.203125
2023-04-02T09:29:45.385Z,100592.015625
2023-04-02T09:30:45.243Z,100596.66796875
2023-04-02T09:31:45.604Z,100595.21484375
2023-04-02T09:32:45.408Z,100595.640625
2023-04-02T09:33:47.705Z,100594.6796875
2023-04-02T09:34:45.271Z,100605.015625
2023-04-02T09:35:45.400Z,100605.1953125
2023-04-02T09:36:45.678Z,100607.71484375
2023-04-02T09:37:45.377Z,100615.6484375
2023-04-02T09:38:45.282Z,100618.4609375
2023-04-02T09:39:45.253Z,100615.2109375
2023-04-02T09:40:45.643Z,100616.453125
2023-04-02T09:41:50.259Z,100616.9375
2023-04-02T09:42:45.260Z,100616.29296875
2023-04-02T09:43:45.742Z,100621.234375
2023-04-02T09:44:47.632Z,100623.1875
2023-04-02T09:45:45.379Z,100629.453125
2023-04-02T09:46:45.353Z,100625.3203125
2023-04-02T09:47:45.284Z,100629.46875
2023-04-02T09:48:45.236Z,100629.19921875
2023-04-02T09:49:45.337Z,100632.4765625
2023-04-02T09:50:45.269Z,100638.515625
2023-04-02T09:51:45.693Z,100639.1015625
2023-04-02T09:52:45.259Z,100641.515625
2023-04-02T09:53:45.355Z,100642.80859375
2023-04-02T09:54:45.272Z,100640.34375
2023-04-02T09:55:47.614Z,100651.08203125
2023-04-02T09:56:45.296Z,100644.05859375
2023-04-02T09:57:45.235Z,100647.20703125
2023-04-02T09:58:45.686Z,100647
2023-04-02T09:59:45.342Z,100654.83203125
2023-04-02T10:00:45.515Z,100649.78125
2023-04-02T10:01:45.673Z,100652.28125
2023-04-02T10:02:45.262Z,100650.75
2023-04-02T10:03:45.301Z,100648.80078125
2023-04-02T10:04:45.585Z,100655.0625
2023-04-02T10:05:45.357Z,100651.859375